< Typhoon 199620 1996 Season Typhoon 199622 >
Typhoon 199621 (ZANE)
General InformationTrack Information on Google MapsDetailed Wind InformationList of All Images || Disaster Info.ResourceGoogle EarthGE AnimationAtom FeedGeoJSON
Detalied Best Track (Time Zone = UTC)
Year Month Day Hour Lat. Long. Pressure (hPa) Wind (kt) Class Image Chart
1996 9 23 18 14.9 140.3 1004 0 2 Image Chart
1996 9 24 00 15.6 138.9 1004 0 2 Image Chart
1996 9 24 06 15.9 137.8 1004 0 2 Image Chart
1996 9 24 12 16.0 136.6 1004 0 2 Image Chart
1996 9 24 18 16.2 135.1 1002 0 2 Image Chart
1996 9 25 00 16.5 133.6 998 35 3 Image Chart
1996 9 25 06 16.8 132.2 990 45 3 Image Chart
1996 9 25 12 17.2 131.1 985 50 4 Image Chart
1996 9 25 18 18.1 130.0 980 55 4 Image Chart
1996 9 26 00 18.9 129.3 970 65 5 Image Chart
1996 9 26 06 19.5 128.7 965 70 5 Image Chart
1996 9 26 12 20.1 127.9 960 75 5 Image Chart
1996 9 26 18 20.5 127.2 960 75 5 Image Chart
1996 9 27 00 20.9 126.5 955 80 5 Image Chart
1996 9 27 06 21.3 126.0 955 80 5 Image Chart
1996 9 27 12 21.7 125.6 955 80 5 Image Chart
1996 9 27 18 22.2 125.4 955 80 5 Image Chart
1996 9 28 00 22.9 125.2 955 80 5 Image Chart
1996 9 28 03 23.3 125.1 955 80 5 Image Chart
1996 9 28 06 23.6 125.1 955 80 5 Image Chart
1996 9 28 09 24.0 125.2 955 80 5 Image Chart
1996 9 28 12 24.4 125.4 955 80 5 Image Chart
1996 9 28 15 24.9 125.6 955 80 5 Image Chart
1996 9 28 18 25.4 125.9 955 80 5 Image Chart
1996 9 28 21 25.8 126.2 955 80 5 Image Chart
1996 9 29 00 26.3 126.3 955 80 5 Image Chart
1996 9 29 03 26.8 126.3 955 80 5 Image Chart
1996 9 29 06 27.2 126.3 955 80 5 Image Chart
1996 9 29 09 27.4 126.5 955 80 5 Image Chart
1996 9 29 12 27.6 126.8 950 80 5 Image Chart
1996 9 29 15 27.4 126.9 950 80 5 Image Chart
1996 9 29 18 27.2 127.1 950 80 5 Image Chart
1996 9 29 21 27.2 127.5 950 80 5 Image Chart
1996 9 30 00 27.2 128.1 955 80 5 Image Chart
1996 9 30 03 27.2 128.6 960 75 5 Image Chart
1996 9 30 06 27.3 129.2 965 70 5 Image Chart
1996 9 30 09 27.4 129.9 965 70 5 Image Chart
1996 9 30 12 27.5 130.6 965 70 5 Image Chart
1996 9 30 15 27.7 131.2 965 70 5 Image Chart
1996 9 30 18 28.0 132.1 970 65 5 Image Chart
1996 9 30 21 28.2 133.0 970 65 5 Image Chart
1996 10 1 00 28.4 134.0 970 65 5 Image Chart
1996 10 1 06 28.7 136.2 970 65 5 Image Chart
1996 10 1 12 29.4 138.3 970 65 5 Image Chart
1996 10 1 18 29.8 140.3 975 60 4 Image Chart
1996 10 2 00 29.5 142.5 980 55 4 Image Chart
1996 10 2 06 29.9 145.0 980 55 4 Image Chart
1996 10 2 12 30.1 147.4 980 55 4 Image Chart
1996 10 2 18 30.7 150.0 980 55 4 Image Chart
1996 10 3 00 31.4 152.8 985 50 4 Image Chart
1996 10 3 06 32.0 155.3 990 45 3 Image Chart
1996 10 3 12 32.5 157.9 992 45 3 Image Chart
1996 10 3 18 32.9 160.9 994 0 6 Image Chart
1996 10 4 00 33.4 163.7 996 0 6 Image Chart
1996 10 4 06 33.6 166.4 1000 0 6 Image Chart
1996 10 4 12 33.4 168.9 1006 0 6 Image Chart
1996 10 4 18 33.2 171.7 1012 0 6 Image Chart
1996 10 5 00 32.5 174.6 1012 0 6 Image Chart
1996 10 5 06 32.0 177.5 1012 0 6 Image Chart
1996 10 5 12 31.5 180.4 1012 0 6 Image Chart
Japan Meteorological Agency Best Track Data | Correction Date : 1997-01-07
< Typhoon 199620 1996 Season Typhoon 199622 >

Help